createdAt,value
2023-03-29T00:00:01.842Z,102221.50
2023-03-29T00:02:39.091Z,102203.75
2023-03-29T00:05:06.860Z,102189.38
2023-03-29T00:07:33.899Z,102199.53
2023-03-29T00:10:02.765Z,102204.19
2023-03-29T00:12:29.732Z,102196.53
2023-03-29T00:14:57.445Z,102189.25
2023-03-29T00:17:24.378Z,102195.56
2023-03-29T00:19:51.499Z,102196.72
2023-03-29T00:22:18.447Z,102198.44
2023-03-29T00:24:47.901Z,102183.19
2023-03-29T00:27:17.991Z,102185.00
2023-03-29T00:30:10.375Z,102185.13
2023-03-29T00:32:38.140Z,102184.47
2023-03-29T00:35:06.567Z,102176.53
2023-03-29T00:37:34.066Z,102178.41
2023-03-29T00:40:01.225Z,102186.44
2023-03-29T00:42:28.400Z,102186.56
2023-03-29T00:45:11.895Z,102175.84
2023-03-29T00:47:42.859Z,102181.38
2023-03-29T00:50:22.601Z,102184.06
2023-03-29T00:52:56.753Z,102179.66
2023-03-29T00:55:27.857Z,102179.00
2023-03-29T00:57:58.052Z,102162.25
2023-03-29T01:00:33.621Z,102172.97
2023-03-29T01:03:09.067Z,102178.34
2023-03-29T01:05:40.696Z,102169.72
2023-03-29T01:08:25.821Z,102171.47
2023-03-29T01:10:53.100Z,102175.31
2023-03-29T01:13:29.123Z,102170.78
2023-03-29T01:15:58.480Z,102169.94
2023-03-29T01:18:25.581Z,102165.41
2023-03-29T01:21:15.498Z,102162.84
2023-03-29T01:24:07.336Z,102158.34
2023-03-29T01:26:44.096Z,102166.69
2023-03-29T01:29:32.884Z,102164.03
2023-03-29T01:32:09.081Z,102166.88
2023-03-29T01:34:44.505Z,102181.22
2023-03-29T01:37:15.801Z,102173.31
2023-03-29T01:39:42.848Z,102161.25
2023-03-29T01:42:15.808Z,102159.25
2023-03-29T01:45:08.023Z,102161.94
2023-03-29T01:47:47.528Z,102162.75
2023-03-29T01:50:14.604Z,102155.78
2023-03-29T01:52:49.806Z,102145.84
2023-03-29T01:55:22.588Z,102145.84
2023-03-29T01:57:52.733Z,102154.84
2023-03-29T02:00:24.974Z,102137.03
2023-03-29T02:02:55.211Z,102135.28
2023-03-29T02:05:24.571Z,102144.28
2023-03-29T02:07:53.024Z,102145.34
2023-03-29T02:10:21.548Z,102141.81
2023-03-29T02:12:48.625Z,102129.66
2023-03-29T02:15:21.927Z,102126.88
2023-03-29T02:17:51.066Z,102137.63
2023-03-29T02:20:26.775Z,102128.78
2023-03-29T02:23:05.384Z,102130.63
2023-03-29T02:25:32.801Z,102125.53
2023-03-29T02:28:00.984Z,102124.59
2023-03-29T02:30:55.176Z,102123.63
2023-03-29T02:33:59.231Z,102118.50
2023-03-29T02:36:43.284Z,102119.53
2023-03-29T02:39:15.842Z,102111.56
2023-03-29T02:41:47.234Z,102118.88
2023-03-29T02:44:21.734Z,102115.25
2023-03-29T02:46:56.942Z,102109.09
2023-03-29T02:49:24.522Z,102106.63
2023-03-29T02:51:54.243Z,102104.69
2023-03-29T02:54:26.048Z,102108.53
2023-03-29T02:56:59.551Z,102110.06
2023-03-29T02:59:29.951Z,102102.00
2023-03-29T03:01:57.104Z,102102.97
2023-03-29T03:04:26.051Z,102111.41
2023-03-29T03:06:53.570Z,102106.06
2023-03-29T03:09:24.278Z,102101.28
2023-03-29T03:11:52.864Z,102093.41
2023-03-29T03:14:23.009Z,102099.94
2023-03-29T03:16:50.694Z,102102.59
2023-03-29T03:19:18.284Z,102092.19
2023-03-29T03:21:47.124Z,102094.78
2023-03-29T03:24:15.704Z,102099.19
2023-03-29T03:26:42.762Z,102089.41
2023-03-29T03:29:09.849Z,102098.41
2023-03-29T03:32:04.405Z,102078.88
2023-03-29T03:34:54.376Z,102078.00
2023-03-29T03:37:26.091Z,102086.16
2023-03-29T03:39:53.707Z,102088.06
2023-03-29T03:42:20.939Z,102085.50
2023-03-29T03:44:47.950Z,102085.50
2023-03-29T03:47:33.285Z,102081.19
2023-03-29T03:50:13.897Z,102085.69
2023-03-29T03:52:41.087Z,102086.53
2023-03-29T03:55:09.465Z,102076.03
2023-03-29T03:58:02.014Z,102082.53
2023-03-29T04:00:29.782Z,102074.69
2023-03-29T04:03:14.196Z,102086.34
2023-03-29T04:05:43.512Z,102096.13
2023-03-29T04:08:12.653Z,102090.09
2023-03-29T04:11:07.546Z,102082.06
2023-03-29T04:13:37.449Z,102094.59
2023-03-29T04:16:25.332Z,102108.25
2023-03-29T04:18:53.961Z,102105.88
2023-03-29T04:21:22.812Z,102100.31
2023-03-29T04:23:49.898Z,102093.72
2023-03-29T04:26:18.162Z,102110.66
2023-03-29T04:28:51.387Z,102111.44
2023-03-29T04:31:23.429Z,102115.94
2023-03-29T04:34:01.865Z,102109.84
2023-03-29T04:36:29.038Z,102106.22
2023-03-29T04:38:56.093Z,102108.97
2023-03-29T04:41:27.554Z,102114.25
2023-03-29T04:44:11.689Z,102124.38
2023-03-29T04:46:40.348Z,102117.28
2023-03-29T04:49:32.745Z,102117.50
2023-03-29T04:52:01.048Z,102128.00
2023-03-29T04:54:30.955Z,102133.34
2023-03-29T04:57:36.220Z,102127.25
2023-03-29T05:00:17.749Z,102123.72
2023-03-29T05:03:07.862Z,102131.75
2023-03-29T05:05:39.195Z,102142.38
2023-03-29T05:08:07.299Z,102141.50
2023-03-29T05:10:44.653Z,102138.91
2023-03-29T05:13:12.853Z,102134.50
2023-03-29T05:15:42.118Z,102149.63
2023-03-29T05:18:09.793Z,102144.47
2023-03-29T05:20:37.873Z,102138.91
2023-03-29T05:23:05.081Z,102142.53
2023-03-29T05:25:58.198Z,102147.03
2023-03-29T05:28:25.259Z,102134.63
2023-03-29T05:31:10.441Z,102141.69
2023-03-29T05:33:39.894Z,102142.72
2023-03-29T05:36:11.285Z,102140.25
2023-03-29T05:38:49.999Z,102148.44
2023-03-29T05:41:18.824Z,102140.41
2023-03-29T05:44:04.275Z,102138.59
2023-03-29T05:46:31.974Z,102144.47
2023-03-29T05:49:02.750Z,102149.44
2023-03-29T05:51:57.045Z,102141.66
2023-03-29T05:54:25.919Z,102148.53
2023-03-29T05:57:11.411Z,102156.19
2023-03-29T05:59:39.830Z,102146.22
2023-03-29T06:02:07.322Z,102146.38
2023-03-29T06:04:40.039Z,102147.44
2023-03-29T06:07:27.282Z,102152.41
2023-03-29T06:10:12.867Z,102158.28
2023-03-29T06:12:43.931Z,102153.97
2023-03-29T06:15:12.851Z,102154.25
2023-03-29T06:18:12.606Z,102152.69
2023-03-29T06:20:39.744Z,102143.03
2023-03-29T06:23:12.309Z,102150.97
2023-03-29T06:25:39.673Z,102155.59
2023-03-29T06:28:07.556Z,102143.88
2023-03-29T06:30:35.222Z,102148.47
2023-03-29T06:33:03.005Z,102142.72
2023-03-29T06:35:56.770Z,102153.56
2023-03-29T06:38:28.755Z,102153.72
2023-03-29T06:41:06.399Z,102146.38
2023-03-29T06:44:09.099Z,102143.50
2023-03-29T06:47:01.903Z,102131.72
2023-03-29T06:49:30.423Z,102133.78
2023-03-29T06:52:04.687Z,102135.28
2023-03-29T06:54:32.104Z,102133.53
2023-03-29T06:57:03.539Z,102135.97
2023-03-29T06:59:32.358Z,102134.00
2023-03-29T07:02:12.730Z,102142.63
2023-03-29T07:04:47.718Z,102131.81
2023-03-29T07:07:55.313Z,102138.97
2023-03-29T07:10:47.611Z,102129.28
2023-03-29T07:13:27.761Z,102131.91
2023-03-29T07:15:58.641Z,102128.59
2023-03-29T07:18:51.614Z,102133.19
2023-03-29T07:21:38.076Z,102142.06
2023-03-29T07:24:06.950Z,102133.00
2023-03-29T07:26:36.068Z,102135.28
2023-03-29T07:29:03.318Z,102130.78
2023-03-29T07:31:30.875Z,102126.16
2023-03-29T07:34:18.700Z,102135.28
2023-03-29T07:36:45.882Z,102141.22
2023-03-29T07:39:13.769Z,102135.00
2023-03-29T07:41:44.317Z,102141.91
2023-03-29T07:44:13.995Z,102142.78
2023-03-29T07:46:43.343Z,102136.00
2023-03-29T07:49:10.753Z,102140.41
2023-03-29T07:51:38.222Z,102145.16
2023-03-29T07:54:10.912Z,102145.97
2023-03-29T07:56:38.045Z,102148.06
2023-03-29T07:59:25.247Z,102152.28
2023-03-29T08:02:02.726Z,102156.31
2023-03-29T08:04:34.898Z,102154.56
2023-03-29T08:07:20.092Z,102158.34
2023-03-29T08:09:56.161Z,102164.38
2023-03-29T08:12:33.760Z,102153.28
2023-03-29T08:15:02.060Z,102158.94
2023-03-29T08:17:34.974Z,102162.97
2023-03-29T08:20:10.919Z,102167.41
2023-03-29T08:22:40.713Z,102160.09
2023-03-29T08:25:23.403Z,102164.78
2023-03-29T08:27:53.718Z,102161.97
2023-03-29T08:30:53.732Z,102162.97
2023-03-29T08:33:22.297Z,102167.78
2023-03-29T08:35:59.261Z,102153.38
2023-03-29T08:38:30.228Z,102162.47
2023-03-29T08:40:57.571Z,102156.97
2023-03-29T08:43:36.795Z,102150.19
2023-03-29T08:46:19.025Z,102148.56
2023-03-29T08:48:54.529Z,102141.78
2023-03-29T08:51:31.997Z,102144.56
2023-03-29T08:54:04.407Z,102147.78
2023-03-29T08:56:51.478Z,102144.31
2023-03-29T08:59:33.333Z,102149.34
2023-03-29T09:02:12.824Z,102142.84
2023-03-29T09:04:40.642Z,102147.59
2023-03-29T09:07:37.510Z,102142.19
2023-03-29T09:10:05.295Z,102140.56
2023-03-29T09:13:08.113Z,102147.56
2023-03-29T09:15:48.962Z,102142.34
2023-03-29T09:19:07.048Z,102132.84
2023-03-29T09:21:40.805Z,102132.81
2023-03-29T09:24:23.368Z,102136.38
2023-03-29T09:27:00.920Z,102134.72
2023-03-29T09:29:50.677Z,102123.72
2023-03-29T09:32:26.762Z,102140.00
2023-03-29T09:35:29.894Z,102125.59
2023-03-29T09:37:58.285Z,102130.38
2023-03-29T09:40:53.907Z,102132.34
2023-03-29T09:43:32.362Z,102134.69
2023-03-29T09:46:04.379Z,102132.31
2023-03-29T09:48:37.938Z,102125.22
2023-03-29T09:51:07.997Z,102120.53
2023-03-29T09:53:37.462Z,102123.19
2023-03-29T09:56:19.134Z,102119.69
2023-03-29T09:58:51.895Z,102119.94
2023-03-29T10:01:19.940Z,102116.28
2023-03-29T10:03:52.527Z,102114.34
2023-03-29T10:06:23.985Z,102109.84
2023-03-29T10:08:59.072Z,102103.97
2023-03-29T10:11:37.160Z,102104.00
2023-03-29T10:14:25.671Z,102107.25
2023-03-29T10:16:56.976Z,102109.38
2023-03-29T10:19:31.065Z,102105.00
2023-03-29T10:22:00.889Z,102098.00
2023-03-29T10:24:28.331Z,102087.97
2023-03-29T10:27:00.225Z,102092.66
2023-03-29T10:29:28.226Z,102090.41
2023-03-29T10:31:55.344Z,102080.97
2023-03-29T10:34:26.262Z,102080.03
2023-03-29T10:37:02.645Z,102074.13
2023-03-29T10:39:34.102Z,102071.91
2023-03-29T10:42:04.590Z,102079.59
2023-03-29T10:44:35.048Z,102075.09
2023-03-29T10:47:17.140Z,102076.84
2023-03-29T10:49:47.730Z,102074.81
2023-03-29T10:52:16.711Z,102067.97
2023-03-29T10:54:44.818Z,102073.66
2023-03-29T10:57:16.887Z,102061.31
2023-03-29T10:59:56.104Z,102058.34
2023-03-29T11:02:49.163Z,102060.53
2023-03-29T11:05:24.625Z,102055.78
2023-03-29T11:08:13.361Z,102059.38
2023-03-29T11:10:58.833Z,102072.94
2023-03-29T11:13:43.995Z,102062.28
2023-03-29T11:16:38.137Z,102065.22
2023-03-29T11:19:18.055Z,102047.81
2023-03-29T11:22:17.028Z,102040.00
2023-03-29T11:25:12.868Z,102046.97
2023-03-29T11:27:59.308Z,102038.09
2023-03-29T11:30:39.982Z,102035.97
2023-03-29T11:33:30.065Z,102033.22
2023-03-29T11:36:17.799Z,102043.69
2023-03-29T11:39:12.220Z,102036.19
2023-03-29T11:41:43.330Z,102032.13
2023-03-29T11:44:31.791Z,102029.59
2023-03-29T11:47:31.931Z,102026.16
2023-03-29T11:50:19.771Z,102021.88
2023-03-29T11:53:05.421Z,102023.19
2023-03-29T11:55:36.673Z,102031.63
2023-03-29T11:58:16.684Z,102024.47
2023-03-29T12:00:52.903Z,102020.97
2023-03-29T12:03:32.883Z,102016.19
2023-03-29T12:06:20.064Z,102005.16
2023-03-29T12:08:54.879Z,102005.34
2023-03-29T12:11:37.451Z,102004.53
2023-03-29T12:14:14.662Z,101997.47
2023-03-29T12:16:53.551Z,101991.69
2023-03-29T12:19:39.763Z,101997.09
2023-03-29T12:22:09.324Z,102005.25
2023-03-29T12:24:43.745Z,102000.00
2023-03-29T12:27:26.662Z,101989.53
2023-03-29T12:30:27.638Z,101996.00
2023-03-29T12:33:24.239Z,101972.84
2023-03-29T12:36:21.635Z,101977.44
2023-03-29T12:39:16.303Z,101961.59
2023-03-29T12:42:18.075Z,101966.03
2023-03-29T12:45:03.868Z,101960.88
2023-03-29T12:47:44.815Z,101954.34
2023-03-29T12:50:25.689Z,101955.69
2023-03-29T12:52:53.168Z,101949.19
2023-03-29T12:55:32.966Z,101948.53
2023-03-29T12:58:05.610Z,101949.50
2023-03-29T13:01:11.619Z,101939.59
2023-03-29T13:03:48.673Z,101946.72
2023-03-29T13:06:45.584Z,101937.00
2023-03-29T13:09:30.870Z,101945.06
2023-03-29T13:12:08.194Z,101931.63
2023-03-29T13:14:38.130Z,101930.44
2023-03-29T13:17:18.124Z,101926.66
2023-03-29T13:19:52.152Z,101920.59
2023-03-29T13:22:37.477Z,101917.19
2023-03-29T13:25:26.372Z,101916.72
2023-03-29T13:28:06.221Z,101909.63
2023-03-29T13:30:59.673Z,101906.03
2023-03-29T13:33:44.996Z,101902.56
2023-03-29T13:36:18.075Z,101898.84
2023-03-29T13:38:54.311Z,101902.25
2023-03-29T13:41:39.172Z,101908.00
2023-03-29T13:44:23.209Z,101903.06
2023-03-29T13:47:06.095Z,101907.06
2023-03-29T13:49:35.717Z,101900.41
2023-03-29T13:52:13.674Z,101894.19
2023-03-29T13:54:52.643Z,101899.00
2023-03-29T13:57:25.298Z,101890.47
2023-03-29T14:00:31.653Z,101890.97
2023-03-29T14:03:02.241Z,101892.97
2023-03-29T14:05:41.817Z,101890.09
2023-03-29T14:08:44.555Z,101890.38
2023-03-29T14:11:26.699Z,101891.41
2023-03-29T14:13:58.864Z,101886.84
2023-03-29T14:16:32.785Z,101884.88
2023-03-29T14:19:03.000Z,101883.88
2023-03-29T14:21:30.628Z,101871.84
2023-03-29T14:24:02.358Z,101866.09
2023-03-29T14:26:34.638Z,101866.72
2023-03-29T14:29:02.920Z,101864.69
2023-03-29T14:31:35.583Z,101867.66
2023-03-29T14:34:06.276Z,101864.22
2023-03-29T14:36:34.281Z,101854.91
2023-03-29T14:39:17.932Z,101851.50
2023-03-29T14:41:51.594Z,101851.19
2023-03-29T14:44:21.954Z,101849.31
2023-03-29T14:46:49.018Z,101846.81
2023-03-29T14:49:20.858Z,101844.28
2023-03-29T14:51:49.338Z,101837.28
2023-03-29T14:54:27.047Z,101848.72
2023-03-29T14:56:55.621Z,101836.56
2023-03-29T14:59:27.530Z,101845.47
2023-03-29T15:01:54.896Z,101836.22
2023-03-29T15:04:21.961Z,101815.84
2023-03-29T15:06:53.002Z,101828.38
2023-03-29T15:09:32.669Z,101825.97
2023-03-29T15:12:01.805Z,101817.06
2023-03-29T15:14:35.557Z,101817.28
2023-03-29T15:17:17.038Z,101814.06
2023-03-29T15:19:44.260Z,101810.22
2023-03-29T15:22:11.990Z,101802.28
2023-03-29T15:24:47.539Z,101820.50
2023-03-29T15:27:17.464Z,101810.53
2023-03-29T15:29:46.952Z,101814.84
2023-03-29T15:32:24.952Z,101819.09
2023-03-29T15:34:59.819Z,101815.97
2023-03-29T15:37:27.483Z,101811.97
2023-03-29T15:39:54.441Z,101817.13
2023-03-29T15:42:21.740Z,101802.56
2023-03-29T15:44:48.748Z,101818.63
2023-03-29T15:47:15.668Z,101812.50
2023-03-29T15:49:42.562Z,101808.09
2023-03-29T15:52:09.392Z,101807.69
2023-03-29T15:54:37.336Z,101803.69
2023-03-29T15:57:07.609Z,101807.53
2023-03-29T15:59:36.486Z,101801.44
2023-03-29T16:02:04.601Z,101803.44
2023-03-29T16:04:31.533Z,101810.03
2023-03-29T16:06:58.610Z,101804.31
2023-03-29T16:09:25.908Z,101812.88
2023-03-29T16:11:52.928Z,101796.19
2023-03-29T16:14:24.302Z,101812.59
2023-03-29T16:16:52.583Z,101805.72
2023-03-29T16:19:19.703Z,101803.19
2023-03-29T16:21:46.705Z,101801.94
2023-03-29T16:24:24.196Z,101798.66
2023-03-29T16:26:54.770Z,101797.81
2023-03-29T16:29:23.201Z,101804.91
2023-03-29T16:31:50.724Z,101802.06
2023-03-29T16:34:18.912Z,101791.22
2023-03-29T16:36:47.649Z,101791.22
2023-03-29T16:39:15.247Z,101784.94
2023-03-29T16:41:42.845Z,101791.22
2023-03-29T16:44:15.980Z,101789.25
2023-03-29T16:46:42.929Z,101787.84
2023-03-29T16:49:14.094Z,101791.22
2023-03-29T16:51:41.114Z,101787.22
2023-03-29T16:54:09.333Z,101787.84
2023-03-29T16:56:36.899Z,101783.00
2023-03-29T16:59:04.138Z,101788.69
2023-03-29T17:01:31.584Z,101787.25
2023-03-29T17:03:58.549Z,101787.25
2023-03-29T17:06:26.592Z,101788.13
2023-03-29T17:08:53.888Z,101780.13
2023-03-29T17:11:23.714Z,101774.44
2023-03-29T17:13:50.809Z,101785.16
2023-03-29T17:16:18.225Z,101788.13
2023-03-29T17:18:45.194Z,101779.47
2023-03-29T17:21:12.171Z,101780.31
2023-03-29T17:23:39.035Z,101780.47
2023-03-29T17:26:07.170Z,101785.03
2023-03-29T17:28:34.670Z,101792.00
2023-03-29T17:31:07.124Z,101792.16
2023-03-29T17:33:34.626Z,101787.88
2023-03-29T17:36:01.833Z,101800.25
2023-03-29T17:38:30.754Z,101794.41
2023-03-29T17:40:57.766Z,101793.25
2023-03-29T17:43:24.704Z,101794.50
2023-03-29T17:45:52.924Z,101788.63
2023-03-29T17:48:20.452Z,101792.91
2023-03-29T17:50:47.467Z,101795.56
2023-03-29T17:53:14.434Z,101797.09
2023-03-29T17:55:41.464Z,101789.97
2023-03-29T17:58:08.618Z,101793.66
2023-03-29T18:00:35.843Z,101793.09
2023-03-29T18:03:03.275Z,101799.31
2023-03-29T18:05:30.153Z,101799.31
2023-03-29T18:07:57.411Z,101791.59
2023-03-29T18:10:24.416Z,101797.84
2023-03-29T18:12:51.872Z,101792.44
2023-03-29T18:15:18.826Z,101796.97
2023-03-29T18:17:46.190Z,101808.31
2023-03-29T18:20:13.919Z,101804.19
2023-03-29T18:22:41.912Z,101808.84
2023-03-29T18:25:09.761Z,101814.75
2023-03-29T18:27:38.178Z,101809.66
2023-03-29T18:30:06.605Z,101802.81
2023-03-29T18:32:33.669Z,101808.16
2023-03-29T18:35:02.432Z,101807.81
2023-03-29T18:37:29.469Z,101810.78
2023-03-29T18:39:57.055Z,101815.44
2023-03-29T18:42:24.014Z,101826.25
2023-03-29T18:44:53.333Z,101826.97
2023-03-29T18:47:20.288Z,101826.25
2023-03-29T18:49:47.323Z,101819.28
2023-03-29T18:52:14.361Z,101821.38
2023-03-29T18:54:41.646Z,101831.44
2023-03-29T18:57:08.746Z,101836.38
2023-03-29T18:59:38.642Z,101836.38
2023-03-29T19:02:06.161Z,101832.63
2023-03-29T19:04:33.119Z,101838.88
2023-03-29T19:07:01.532Z,101838.88
2023-03-29T19:09:28.698Z,101844.78
2023-03-29T19:11:55.773Z,101845.63
2023-03-29T19:14:25.271Z,101851.88
2023-03-29T19:16:52.924Z,101839.91
2023-03-29T19:19:22.597Z,101842.84
2023-03-29T19:21:50.238Z,101854.63
2023-03-29T19:24:17.921Z,101861.00
2023-03-29T19:26:47.958Z,101856.84
2023-03-29T19:29:15.525Z,101860.00
2023-03-29T19:31:42.813Z,101870.94
2023-03-29T19:34:11.165Z,101863.94
2023-03-29T19:36:38.617Z,101866.66
2023-03-29T19:39:05.955Z,101871.06
2023-03-29T19:41:32.898Z,101873.16
2023-03-29T19:43:59.828Z,101877.81
2023-03-29T19:46:28.436Z,101879.41
2023-03-29T19:48:56.281Z,101877.91
2023-03-29T19:51:23.946Z,101882.72
2023-03-29T19:53:51.141Z,101894.63
2023-03-29T19:56:18.224Z,101896.31
2023-03-29T19:58:46.926Z,101894.84
2023-03-29T20:01:15.667Z,101889.47
2023-03-29T20:03:43.826Z,101884.34
2023-03-29T20:06:11.055Z,101892.41
2023-03-29T20:08:39.011Z,101900.78
2023-03-29T20:11:10.597Z,101891.69
2023-03-29T20:13:39.719Z,101881.16
2023-03-29T20:16:09.022Z,101874.31
2023-03-29T20:18:38.393Z,101870.44
2023-03-29T20:21:06.980Z,101878.50
2023-03-29T20:23:34.832Z,101884.88
2023-03-29T20:26:01.879Z,101890.97
2023-03-29T20:28:29.349Z,101890.84
2023-03-29T20:30:56.250Z,101892.84
2023-03-29T20:33:23.234Z,101895.38
2023-03-29T20:35:50.247Z,101890.97
2023-03-29T20:38:17.139Z,101890.00
2023-03-29T20:40:47.294Z,101893.66
2023-03-29T20:43:18.805Z,101899.31
2023-03-29T20:45:53.589Z,101897.59
2023-03-29T20:48:23.574Z,101901.16
2023-03-29T20:50:51.034Z,101895.28
2023-03-29T20:53:18.531Z,101898.81
2023-03-29T20:55:45.616Z,101892.72
2023-03-29T20:58:12.572Z,101898.94
2023-03-29T21:00:40.474Z,101898.09
2023-03-29T21:03:08.637Z,101901.78
2023-03-29T21:05:35.897Z,101898.94
2023-03-29T21:08:04.470Z,101895.53
2023-03-29T21:10:31.504Z,101883.03
2023-03-29T21:13:00.538Z,101884.88
2023-03-29T21:15:31.083Z,101889.75
2023-03-29T21:17:58.784Z,101884.38
2023-03-29T21:20:25.858Z,101888.19
2023-03-29T21:22:52.757Z,101895.41
2023-03-29T21:25:19.800Z,101886.84
2023-03-29T21:27:46.748Z,101885.22
2023-03-29T21:30:13.934Z,101879.72
2023-03-29T21:32:41.371Z,101881.44
2023-03-29T21:35:09.423Z,101885.97
2023-03-29T21:37:36.459Z,101893.44
2023-03-29T21:40:08.703Z,101891.63
2023-03-29T21:42:35.892Z,101889.28
2023-03-29T21:45:03.350Z,101887.31
2023-03-29T21:47:30.677Z,101881.06
2023-03-29T21:49:57.686Z,101873.13
2023-03-29T21:52:24.572Z,101872.28
2023-03-29T21:54:51.584Z,101871.53
2023-03-29T21:57:22.351Z,101870.91
2023-03-29T21:59:49.390Z,101862.56
2023-03-29T22:02:17.108Z,101863.53
2023-03-29T22:04:44.167Z,101862.78
2023-03-29T22:07:11.250Z,101864.41
2023-03-29T22:09:41.351Z,101870.66
2023-03-29T22:12:09.948Z,101866.94
2023-03-29T22:14:36.808Z,101868.69
2023-03-29T22:17:07.839Z,101873.44
2023-03-29T22:19:39.352Z,101860.97
2023-03-29T22:22:13.766Z,101850.94
2023-03-29T22:24:42.364Z,101843.09
2023-03-29T22:27:10.629Z,101860.34
2023-03-29T22:29:37.859Z,101875.03
2023-03-29T22:32:05.998Z,101871.34
2023-03-29T22:34:33.291Z,101868.91
2023-03-29T22:37:00.278Z,101870.72
2023-03-29T22:39:27.170Z,101858.63
2023-03-29T22:41:54.186Z,101857.63
2023-03-29T22:44:21.214Z,101865.22
2023-03-29T22:46:48.093Z,101865.47
2023-03-29T22:49:15.034Z,101875.84
2023-03-29T22:51:42.113Z,101868.13
2023-03-29T22:54:09.083Z,101875.22
2023-03-29T22:56:36.421Z,101880.97
2023-03-29T22:59:03.413Z,101881.31
2023-03-29T23:01:30.422Z,101885.06
2023-03-29T23:03:57.501Z,101876.16
2023-03-29T23:06:24.491Z,101886.19
2023-03-29T23:08:51.412Z,101881.50
2023-03-29T23:11:18.341Z,101882.25
2023-03-29T23:13:48.925Z,101885.94
2023-03-29T23:16:16.548Z,101880.75
2023-03-29T23:18:43.427Z,101863.03
2023-03-29T23:21:10.922Z,101879.38
2023-03-29T23:23:38.855Z,101884.91
2023-03-29T23:26:06.625Z,101885.13
2023-03-29T23:28:34.774Z,101882.44
2023-03-29T23:31:02.899Z,101872.78
2023-03-29T23:33:33.721Z,101874.59
2023-03-29T23:36:03.907Z,101865.56
2023-03-29T23:38:32.127Z,101855.03
2023-03-29T23:41:02.204Z,101863.00
2023-03-29T23:43:32.805Z,101860.41
2023-03-29T23:46:02.218Z,101864.94
2023-03-29T23:48:29.714Z,101860.66
2023-03-29T23:50:59.401Z,101862.84
2023-03-29T23:53:28.834Z,101868.22
2023-03-29T23:56:01.504Z,101873.34
2023-03-29T23:58:29.754Z,101866.28
